Avella, Pennsylvania
Current Conditions -  °F | °C
As of 6:53 AM on Thursday 29 Jan 2015 (Local Time) from KHLG Reporting Station
Few Clouds Few Clouds  
Wind Chill: 15°   Ceiling: Unl
Heat Index: 25°   Visibility: 10mi
Dew Point: 13°   Wind: 10mph
Humidity: 60%   Direction: 130°SE
Pressure: 30.03"   Gusts: NA
Location:  40.28°N, 80.46°W
Report Text: KHLG 291153Z 13009KT 10SM FEW100 M04/M11 A3003 RMK AO2 SLP188 T10391106 11039 21061 56035
Loading
Personal Weather Stations






























Interactive Weather Map New forecast layout! Learn more

10-Day Weather Forecast

Advertisements
Track Severe Weather on mobile